This is the latest recevied weather packets stored in our database for station/object Sauldorf. If no packets are shown the sender has not sent any weather packets the latest 10 day(s).
| Time | Temp. | Humidity | Pressure | Rain* | Wind** | Luminosity | Snow |
|---|---|---|---|---|---|---|---|
| 1778004131 | 12.78° C | 84% | 1007.1 hPa | 1.52 mm | - | - | - |
| 1778002330 | 13.89° C | 80% | 1007.1 hPa | 1.27 mm | - | - | - |
| 1778000530 | 14.44° C | 78% | 1006.9 hPa | 1.27 mm | - | - | - |
| 1777998731 | 15.56° C | 75% | 1006.8 hPa | 1.27 mm | - | - | - |
| 1777995130 | 17.22° C | 69% | 1006.5 hPa | 1.27 mm | - | - | - |
| 1777993336 | 17.22° C | 71% | 1006.4 hPa | 1.27 mm | - | - | - |
| 1777991532 | 16.11° C | 69% | 1006.6 hPa | 1.27 mm | - | - | - |
| 1777989730 | 15° C | 74% | 1006.6 hPa | 1.27 mm | - | - | - |
| 1777987930 | 14.44° C | 77% | 1006.8 hPa | 1.27 mm | - | - | - |
| 1777986130 | 13.33° C | 85% | 1006.7 hPa | 1.27 mm | - | - | - |
| 1777984330 | 13.33° C | 85% | 1007.2 hPa | 1.02 mm | - | - | - |
| 1777982530 | 13.33° C | 85% | 1007.4 hPa | 1.02 mm | - | - | - |
| 1777980730 | 13.33° C | 83% | 1007.6 hPa | 0.51 mm | - | - | - |
| 1777978931 | 13.89° C | 85% | 1007 hPa | 0.25 mm | - | - | - |
| 1777977131 | 13.33° C | 83% | 1007 hPa | 0 mm | - | - | - |
| 1777975332 | 13.33° C | 80% | 1007.2 hPa | 0 mm | - | - | - |
| 1777973532 | 14.44° C | 76% | 1007.5 hPa | 0 mm | - | - | - |
| 1777971732 | 14.44° C | 75% | 1007.6 hPa | 0 mm | - | - | - |
| 1777969931 | 15° C | 72% | 1007.6 hPa | 0 mm | - | - | - |
| 1777968131 | 14.44° C | 72% | 1007.6 hPa | 0 mm | - | - | - |
| 1777966330 | 13.89° C | 75% | 1007.8 hPa | 0 mm | - | - | - |
| 1777964532 | 12.78° C | 77% | 1008 hPa | 0 mm | - | - | - |
| 1777962731 | 12.22° C | 81% | 1008.2 hPa | 0 mm | - | - | - |
| 1777960932 | 11.11° C | 85% | 1008.2 hPa | 0 mm | - | - | - |
| 1777959131 | 8.33° C | 90% | 1008.3 hPa | 0 mm | - | - | - |
* Rain since midnight (hover to see other rain measurements)
** Current wind speed in m/s (hover to see current wind gust speed)